Time;durP1;ratioP1;P1;durP2;ratioP2;P2;SDS_P1;SDS_P2;PMS_P1;PMS_P2;Temp;Humidity;BMP_temperature;BMP_pressure;BME280_temperature;BME280_humidity;BME280_pressure;Samples;Min_cycle;Max_cycle;Signal;HPM_P1;HPM_P2
2022/09/24 00:00:22;;;;;;;;;;;;;;;13.68;75.38;100372.06;4131203;28;19925;-64
2022/09/24 00:02:25;;;;;;;;;;;;;;;13.71;75.54;100365.97;4132419;28;20012;-64
2022/09/24 00:04:28;;;;;;;;;;;;;;;13.71;75.13;100358.13;4131604;28;19991;-63
2022/09/24 00:06:33;;;;;;;;;;;;;;;13.72;74.83;100367.72;4130960;28;19922;-64
2022/09/24 00:08:57;;;;;;;;;;;;;;;13.73;75.27;100362.47;4131843;28;19991;-63
2022/09/24 00:11:20;;;;;;;;;;;;;;;13.74;75.14;100355.50;4132509;28;20024;-63
2022/09/24 00:13:23;;;;;;;;;;;;;;;13.75;74.21;100358.13;4131089;28;19925;-64
2022/09/24 00:15:25;;;;;;;;;;;;;;;13.75;74.68;100360.72;4130496;28;19922;-64
2022/09/24 00:17:28;;;;;;;;;;;;;;;13.75;74.57;100363.34;4131736;28;19921;-64
2022/09/24 00:19:31;;;;;;;;;;;;;;;13.73;74.46;100365.09;4130186;28;19925;-64
2022/09/24 00:21:34;;;;;;;;;;;;;;;13.74;74.82;100364.22;4131401;28;19921;-64
2022/09/24 00:23:36;;;;;;;;;;;;;;;13.74;75.05;100358.13;4129844;28;19926;-63
2022/09/24 00:28:04;;;;;;;;;;;;;;;13.73;74.29;100354.66;4132055;28;19987;-64
2022/09/24 00:30:07;;;;;;;;;;;;;;;13.69;74.91;100349.44;4126773;28;19925;-64
2022/09/24 00:32:10;;;;;;;;;;;;;;;13.68;74.69;100342.44;4131451;28;19922;-63
2022/09/24 00:34:13;;;;;;;;;;;;;;;13.67;74.54;100349.44;4115072;28;19946;-64
2022/09/24 00:36:16;;;;;;;;;;;;;;;13.68;75.26;100345.06;4115676;28;19961;-64
2022/09/24 00:38:18;;;;;;;;;;;;;;;13.69;74.51;100345.06;4123887;28;19921;-64
2022/09/24 00:40:26;;;;;;;;;;;;;;;13.69;74.96;100344.19;4130878;28;20288;-63
2022/09/24 00:42:31;;;;;;;;;;;;;;;13.69;75.05;100338.97;4131787;28;19929;-63
2022/09/24 00:44:57;;;;;;;;;;;;;;;13.66;75.04;100344.22;4113518;28;20012;-64
2022/09/24 00:47:00;;;;;;;;;;;;;;;13.61;74.71;100342.47;4131724;28;19968;-64
2022/09/24 00:49:05;;;;;;;;;;;;;;;13.57;75.27;100338.09;4130631;28;20343;-64
2022/09/24 00:51:09;;;;;;;;;;;;;;;13.55;74.46;100329.41;4128172;28;19929;-64
2022/09/24 00:53:15;;;;;;;;;;;;;;;13.53;75.34;100327.66;4131091;28;19956;-64
2022/09/24 00:55:18;;;;;;;;;;;;;;;13.53;74.97;100319.81;4130496;28;19925;-64
2022/09/24 00:57:22;;;;;;;;;;;;;;;13.48;74.81;100308.50;4131731;28;20388;-64
2022/09/24 00:59:27;;;;;;;;;;;;;;;13.47;75.01;100312.84;4130408;28;20372;-63
2022/09/24 01:01:29;;;;;;;;;;;;;;;13.45;74.94;100304.16;4131766;28;19922;-64
2022/09/24 01:03:34;;;;;;;;;;;;;;;13.43;74.65;100300.66;4130781;28;20295;-63
2022/09/24 01:05:37;;;;;;;;;;;;;;;13.40;74.54;100303.28;4131687;28;19928;-63
2022/09/24 01:07:40;;;;;;;;;;;;;;;13.37;74.70;100300.66;4123315;28;20311;-63
2022/09/24 01:09:43;;;;;;;;;;;;;;;13.36;74.93;100301.53;4129020;28;19953;-64
2022/09/24 01:11:47;;;;;;;;;;;;;;;13.33;75.09;100299.78;4130248;28;20372;-63
2022/09/24 01:14:25;;;;;;;;;;;;;;;13.31;74.80;100301.50;4130943;28;19925;-64
2022/09/24 01:16:33;;;;;;;;;;;;;;;13.26;75.01;100305.88;4083851;29;19930;-64
2022/09/24 01:18:38;;;;;;;;;;;;;;;13.21;75.14;100299.75;4098742;28;19933;-63
2022/09/24 01:20:56;;;;;;;;;;;;;;;13.15;75.31;100305.84;4098724;28;19929;-63
2022/09/24 01:23:08;;;;;;;;;;;;;;;13.14;75.06;100303.22;4117155;28;19977;-63
2022/09/24 01:25:15;;;;;;;;;;;;;;;13.13;75.35;100294.53;4129726;28;20371;-63
2022/09/24 01:27:20;;;;;;;;;;;;;;;13.14;74.97;100298.91;4129218;28;19926;-63
2022/09/24 01:29:27;;;;;;;;;;;;;;;13.14;74.74;100300.63;4126315;28;19929;-62
2022/09/24 01:31:33;;;;;;;;;;;;;;;13.10;75.34;100298.00;4128800;28;19934;-63
2022/09/24 01:33:36;;;;;;;;;;;;;;;13.09;75.14;100301.47;4129947;28;19935;-63
2022/09/24 01:35:41;;;;;;;;;;;;;;;13.07;75.00;100303.22;4134006;28;20438;-63
2022/09/24 01:37:46;;;;;;;;;;;;;;;13.08;75.07;100296.25;4134255;28;19925;-64
2022/09/24 01:39:52;;;;;;;;;;;;;;;13.07;75.06;100287.56;4129667;28;19937;-64
2022/09/24 01:41:56;;;;;;;;;;;;;;;13.05;75.08;100288.44;4133048;28;19928;-64
2022/09/24 01:43:59;;;;;;;;;;;;;;;13.02;75.13;100288.44;4132854;28;19922;-64
2022/09/24 01:46:05;;;;;;;;;;;;;;;12.97;75.62;100295.41;4126090;28;20397;-64
2022/09/24 01:48:09;;;;;;;;;;;;;;;12.96;75.17;100293.66;4134246;28;20291;-64
2022/09/24 01:50:12;;;;;;;;;;;;;;;12.91;75.48;100289.28;4133199;28;19921;-64
2022/09/24 01:52:18;;;;;;;;;;;;;;;12.83;75.84;100298.81;4134131;28;19921;-63
2022/09/24 01:54:25;;;;;;;;;;;;;;;12.82;75.45;100281.44;4131766;28;19921;-63
2022/09/24 01:56:33;;;;;;;;;;;;;;;12.84;75.62;100284.06;4134185;28;19922;-63
2022/09/24 01:58:39;;;;;;;;;;;;;;;12.83;75.21;100277.94;4133101;28;19922;-64
2022/09/24 02:00:45;;;;;;;;;;;;;;;12.82;75.49;100271.00;4133847;28;20390;-64
2022/09/24 02:02:52;;;;;;;;;;;;;;;12.82;75.32;100264.91;4134089;28;19940;-64
2022/09/24 02:04:58;;;;;;;;;;;;;;;12.75;75.28;100264.91;4133297;28;19928;-64
2022/09/24 02:07:04;;;;;;;;;;;;;;;12.74;75.39;100270.13;4133846;28;20402;-63
2022/09/24 02:09:21;;;;;;;;;;;;;;;12.74;74.87;100254.47;4123537;28;19932;-64
2022/09/24 02:11:26;;;;;;;;;;;;;;;12.70;75.69;100260.53;4133313;28;20339;-64
2022/09/24 02:13:31;;;;;;;;;;;;;;;12.69;75.30;100264.91;4133799;28;19976;-64
2022/09/24 02:15:36;;;;;;;;;;;;;;;12.67;75.34;100265.75;4133426;28;19921;-64
2022/09/24 02:17:40;;;;;;;;;;;;;;;12.67;75.29;100263.16;4133634;28;19922;-64
2022/09/24 02:19:44;;;;;;;;;;;;;;;12.68;74.98;100259.69;4129365;28;19922;-64
2022/09/24 02:21:48;;;;;;;;;;;;;;;12.64;75.15;100265.75;4127492;28;19926;-63
2022/09/24 02:23:51;;;;;;;;;;;;;;;12.62;75.31;100268.34;4131594;28;20025;-63
2022/09/24 02:25:57;;;;;;;;;;;;;;;12.54;75.53;100265.72;4133985;28;20296;-63
2022/09/24 02:28:01;;;;;;;;;;;;;;;12.53;75.53;100271.81;4133907;28;19985;-64
2022/09/24 02:30:05;;;;;;;;;;;;;;;12.51;75.33;100273.56;4132678;28;19921;-63
2022/09/24 02:32:10;;;;;;;;;;;;;;;12.54;75.21;100275.28;4133876;28;20380;-63
2022/09/24 02:34:20;;;;;;;;;;;;;;;12.52;75.17;100264.84;4131752;28;19921;-64
2022/09/24 02:36:25;;;;;;;;;;;;;;;12.51;75.14;100267.44;4133814;28;20380;-63
2022/09/24 02:38:28;;;;;;;;;;;;;;;12.52;75.36;100262.22;4133790;28;19921;-63
2022/09/24 02:40:30;;;;;;;;;;;;;;;12.51;75.30;100263.13;4132414;28;19926;-63
2022/09/24 02:42:33;;;;;;;;;;;;;;;12.51;74.95;100264.84;4133707;28;20020;-63
2022/09/24 02:44:36;;;;;;;;;;;;;;;12.50;74.84;100261.38;4130076;28;19921;-64
2022/09/24 02:46:40;;;;;;;;;;;;;;;12.49;74.50;100271.78;4132337;28;20320;-64
2022/09/24 02:48:42;;;;;;;;;;;;;;;12.46;74.61;100275.25;4133303;28;19922;-64
2022/09/24 02:50:45;;;;;;;;;;;;;;;12.42;74.77;100265.69;4132095;28;19921;-63
2022/09/24 02:52:49;;;;;;;;;;;;;;;12.39;75.03;100271.75;4132072;28;19921;-63
2022/09/24 02:54:52;;;;;;;;;;;;;;;12.42;75.19;100270.88;4132840;28;19929;-64
2022/09/24 02:56:54;;;;;;;;;;;;;;;12.44;74.88;100274.41;4131803;28;19944;-64
2022/09/24 02:58:57;;;;;;;;;;;;;;;12.41;75.32;100266.53;4115813;28;20392;-64
2022/09/24 03:00:59;;;;;;;;;;;;;;;12.37;75.19;100264.81;4132959;28;19972;-63
2022/09/24 03:03:02;;;;;;;;;;;;;;;12.34;75.55;100263.06;4132001;28;19921;-63
2022/09/24 03:05:05;;;;;;;;;;;;;;;12.37;75.01;100263.06;4131264;28;20045;-63
2022/09/24 03:07:08;;;;;;;;;;;;;;;12.38;74.90;100269.13;4131923;28;20005;-63
2022/09/24 03:09:12;;;;;;;;;;;;;;;12.40;75.05;100263.06;4132995;28;19922;-63
2022/09/24 03:11:15;;;;;;;;;;;;;;;12.39;74.84;100255.25;4133165;28;19922;-64
2022/09/24 03:13:20;;;;;;;;;;;;;;;12.40;75.02;100259.59;4132162;28;20020;-63
2022/09/24 03:15:23;;;;;;;;;;;;;;;12.39;74.40;100266.53;4131945;28;19945;-63
2022/09/24 03:17:26;;;;;;;;;;;;;;;12.33;75.03;100258.69;4130640;28;19922;-64
2022/09/24 03:19:29;;;;;;;;;;;;;;;12.33;74.87;100260.44;4131323;28;19922;-63
2022/09/24 03:21:31;;;;;;;;;;;;;;;12.29;74.59;100248.25;4132589;28;19922;-63
2022/09/24 03:23:34;;;;;;;;;;;;;;;12.24;74.61;100256.06;4131858;28;19984;-63
2022/09/24 03:25:38;;;;;;;;;;;;;;;12.18;75.13;100249.09;4132577;28;19926;-63
2022/09/24 03:27:41;;;;;;;;;;;;;;;12.15;75.26;100254.28;4130644;28;19929;-63
2022/09/24 03:32:04;;;;;;;;;;;;;;;12.15;74.61;100246.47;4131707;28;19921;-63
2022/09/24 03:34:07;;;;;;;;;;;;;;;12.14;74.79;100244.72;4130486;28;19926;-63
2022/09/24 03:36:12;;;;;;;;;;;;;;;12.09;75.14;100241.25;4132565;28;19922;-63
2022/09/24 03:38:15;;;;;;;;;;;;;;;12.08;74.95;100236.88;4131720;28;19921;-63
2022/09/24 03:40:18;;;;;;;;;;;;;;;12.09;74.95;100236.03;4130944;28;19960;-63
2022/09/24 03:42:22;;;;;;;;;;;;;;;12.05;75.42;100227.31;4115287;28;19945;-63
2022/09/24 03:44:24;;;;;;;;;;;;;;;12.07;75.27;100231.66;4131883;28;19953;-63
2022/09/24 03:46:28;;;;;;;;;;;;;;;12.07;74.99;100236.88;4132700;28;19933;-63
2022/09/24 03:48:33;;;;;;;;;;;;;;;12.06;75.31;100241.19;4132595;28;19922;-62
2022/09/24 03:50:36;;;;;;;;;;;;;;;12.04;75.27;100232.50;4131578;28;19976;-62
2022/09/24 03:52:38;;;;;;;;;;;;;;;11.97;75.86;100233.34;4132477;28;19922;-63
2022/09/24 03:54:41;;;;;;;;;;;;;;;11.94;75.89;100230.72;4130352;28;19922;-63
2022/09/24 03:56:44;;;;;;;;;;;;;;;11.95;76.27;100232.47;4131509;28;19956;-63
2022/09/24 03:58:48;;;;;;;;;;;;;;;11.97;75.93;100230.75;4132379;28;19923;-63
2022/09/24 04:00:51;;;;;;;;;;;;;;;11.95;75.76;100238.56;4130806;28;19922;-63
2022/09/24 04:02:54;;;;;;;;;;;;;;;11.90;75.99;100241.97;4131073;28;20343;-63
2022/09/24 04:04:57;;;;;;;;;;;;;;;11.86;76.08;100244.56;4130228;28;19925;-63
2022/09/24 04:07:00;;;;;;;;;;;;;;;11.86;75.82;100239.34;4132433;28;20447;-63
2022/09/24 04:09:03;;;;;;;;;;;;;;;11.88;75.69;100234.13;4130635;28;19921;-63
2022/09/24 04:11:05;;;;;;;;;;;;;;;11.86;76.25;100235.88;4121805;28;19922;-64
2022/09/24 04:13:08;;;;;;;;;;;;;;;11.86;75.82;100238.47;4131677;28;20052;-64
2022/09/24 04:15:14;;;;;;;;;;;;;;;11.87;75.99;100229.78;4131775;28;19922;-64
2022/09/24 04:17:16;;;;;;;;;;;;;;;11.89;75.93;100230.69;4131961;28;19928;-63
2022/09/24 04:19:19;;;;;;;;;;;;;;;11.88;75.77;100229.81;4130499;28;20076;-63
2022/09/24 04:21:22;;;;;;;;;;;;;;;11.89;75.54;100225.47;4113369;28;19989;-63
2022/09/24 04:23:25;;;;;;;;;;;;;;;11.86;76.24;100228.06;4127228;28;19933;-63
2022/09/24 04:25:29;;;;;;;;;;;;;;;11.80;76.16;100226.28;4131552;28;19961;-63
2022/09/24 04:27:32;;;;;;;;;;;;;;;11.75;76.59;100219.31;4098791;28;19929;-63
2022/09/24 04:29:34;;;;;;;;;;;;;;;11.73;76.69;100221.91;4142616;28;19921;-63
2022/09/24 04:31:39;;;;;;;;;;;;;;;11.77;76.72;100218.47;4130806;28;19922;-63
2022/09/24 04:33:42;;;;;;;;;;;;;;;11.77;76.34;100228.00;4129885;28;20028;-63
2022/09/24 04:35:45;;;;;;;;;;;;;;;11.76;77.23;100231.47;4131652;28;19922;-63
2022/09/24 04:37:48;;;;;;;;;;;;;;;11.73;76.83;100229.72;4131943;28;19925;-63
2022/09/24 04:39:51;;;;;;;;;;;;;;;11.73;76.72;100229.72;4130097;28;19925;-63
2022/09/24 04:41:53;;;;;;;;;;;;;;;11.68;77.43;100228.81;4115953;28;19965;-63
2022/09/24 04:43:56;;;;;;;;;;;;;;;11.69;77.26;100221.00;4118616;28;19925;-63
2022/09/24 04:45:59;;;;;;;;;;;;;;;11.73;77.27;100227.13;4122051;28;19949;-63
2022/09/24 04:48:03;;;;;;;;;;;;;;;11.76;76.94;100221.06;4131965;28;19922;-63
2022/09/24 04:50:06;;;;;;;;;;;;;;;11.81;76.38;100215.03;4131878;28;19921;-63
2022/09/24 04:52:09;;;;;;;;;;;;;;;11.79;76.00;100213.25;4131906;28;19953;-63
2022/09/24 04:54:12;;;;;;;;;;;;;;;11.79;75.98;100211.53;4129837;28;19922;-63
2022/09/24 04:56:15;;;;;;;;;;;;;;;11.76;75.50;100219.31;4130912;28;20360;-63
2022/09/24 04:58:17;;;;;;;;;;;;;;;11.75;76.09;100220.19;4130598;28;19934;-63
2022/09/24 05:00:20;;;;;;;;;;;;;;;11.76;76.34;100221.94;4131863;28;19922;-63
2022/09/24 05:02:23;;;;;;;;;;;;;;;11.75;76.35;100220.19;4131919;28;20403;-63
2022/09/24 05:04:30;;;;;;;;;;;;;;;11.70;75.81;100219.28;4131129;28;19941;-63
2022/09/24 05:06:32;;;;;;;;;;;;;;;11.61;76.69;100221.81;4131752;28;19922;-63
2022/09/24 05:08:35;;;;;;;;;;;;;;;11.61;76.29;100221.81;4127235;28;19922;-63
2022/09/24 05:10:38;;;;;;;;;;;;;;;11.62;76.64;100228.78;4134776;28;20403;-63
2022/09/24 05:12:40;;;;;;;;;;;;;;;11.58;76.09;100227.91;4133418;28;19921;-63
2022/09/24 05:14:43;;;;;;;;;;;;;;;11.55;76.70;100232.22;4134076;28;20011;-63
2022/09/24 05:16:46;;;;;;;;;;;;;;;11.51;76.95;100226.97;4134854;28;19922;-63
2022/09/24 05:18:48;;;;;;;;;;;;;;;11.54;76.67;100231.34;4133129;28;19925;-63
2022/09/24 05:20:52;;;;;;;;;;;;;;;11.52;76.80;100233.94;4133512;28;19937;-63
2022/09/24 05:22:55;;;;;;;;;;;;;;;11.47;77.58;100232.16;4134503;28;19921;-63
2022/09/24 05:24:57;;;;;;;;;;;;;;;11.45;77.08;100229.56;4133784;28;19922;-63
2022/09/24 05:27:08;;;;;;;;;;;;;;;11.49;77.00;100223.50;4133609;28;19921;-63
2022/09/24 05:29:11;;;;;;;;;;;;;;;11.58;77.02;100227.00;4134413;28;20319;-63
2022/09/24 05:31:14;;;;;;;;;;;;;;;11.62;76.77;100232.28;4134632;28;20406;-63
2022/09/24 05:33:16;;;;;;;;;;;;;;;11.59;76.15;100237.44;4116120;28;20020;-63
2022/09/24 05:35:19;;;;;;;;;;;;;;;11.54;75.90;100239.16;4132392;28;19929;-63
2022/09/24 05:37:23;;;;;;;;;;;;;;;11.48;75.66;100242.59;4129494;28;19922;-63
2022/09/24 05:39:26;;;;;;;;;;;;;;;11.51;75.54;100242.59;4130039;28;19929;-62
2022/09/24 05:41:35;;;;;;;;;;;;;;;11.56;75.67;100247.84;4133274;28;19922;-63
2022/09/24 05:43:37;;;;;;;;;;;;;;;11.58;76.09;100242.63;4132498;28;19921;-63
2022/09/24 05:45:40;;;;;;;;;;;;;;;11.63;76.10;100243.56;4116317;28;19977;-63
2022/09/24 05:47:43;;;;;;;;;;;;;;;11.63;75.71;100240.94;4134496;28;19945;-63
2022/09/24 05:49:46;;;;;;;;;;;;;;;11.69;75.96;100246.19;4134516;28;20368;-63
2022/09/24 05:51:49;;;;;;;;;;;;;;;11.70;75.91;100248.78;4134369;28;20387;-63
2022/09/24 05:53:53;;;;;;;;;;;;;;;11.70;75.23;100253.16;4133589;28;19968;-63
2022/09/24 05:55:56;;;;;;;;;;;;;;;11.71;75.28;100249.69;4132310;28;19925;-63
2022/09/24 05:58:02;;;;;;;;;;;;;;;11.74;75.37;100246.22;4127662;28;19956;-63
2022/09/24 06:00:05;;;;;;;;;;;;;;;11.77;75.79;100254.94;4133149;28;19991;-63
2022/09/24 06:02:16;;;;;;;;;;;;;;;11.76;75.96;100247.09;4134212;28;20371;-63
2022/09/24 06:04:19;;;;;;;;;;;;;;;11.77;76.08;100260.13;4133567;28;19929;-63
2022/09/24 06:06:21;;;;;;;;;;;;;;;11.76;75.96;100263.59;4128860;28;19964;-63
2022/09/24 06:08:24;;;;;;;;;;;;;;;11.74;76.31;100270.53;4129633;28;19966;-63
2022/09/24 06:10:28;;;;;;;;;;;;;;;11.76;76.02;100258.38;4133964;28;19932;-63
2022/09/24 06:12:33;;;;;;;;;;;;;;;11.75;75.88;100266.19;4133757;28;19922;-63
2022/09/24 06:14:36;;;;;;;;;;;;;;;11.76;75.61;100268.81;4130956;28;19922;-63
2022/09/24 06:16:38;;;;;;;;;;;;;;;11.78;75.76;100264.47;4116446;28;19922;-63
2022/09/24 06:18:43;;;;;;;;;;;;;;;11.73;75.23;100263.59;4132549;28;20061;-63
2022/09/24 06:20:45;;;;;;;;;;;;;;;11.73;75.47;100260.97;4132990;28;20390;-62
2022/09/24 06:22:49;;;;;;;;;;;;;;;11.84;75.20;100263.63;4133324;28;19929;-63
2022/09/24 06:24:52;;;;;;;;;;;;;;;11.88;75.08;100261.09;4132968;28;19922;-63
2022/09/24 06:26:57;;;;;;;;;;;;;;;11.89;75.01;100259.34;4116419;28;20439;-63
2022/09/24 06:28:59;;;;;;;;;;;;;;;11.88;75.05;100258.47;4133604;28;20240;-63
2022/09/24 06:31:08;;;;;;;;;;;;;;;11.92;75.18;100259.34;4131704;28;19973;-63
2022/09/24 06:33:12;;;;;;;;;;;;;;;12.00;75.18;100259.41;4112129;28;19949;-63
2022/09/24 06:35:14;;;;;;;;;;;;;;;12.05;75.32;100268.13;4131840;28;19983;-63
2022/09/24 06:37:17;;;;;;;;;;;;;;;12.05;75.86;100270.75;4132691;28;20407;-63
2022/09/24 06:39:19;;;;;;;;;;;;;;;12.03;75.35;100272.44;4132239;28;20339;-62
2022/09/24 06:41:22;;;;;;;;;;;;;;;12.10;75.52;100271.63;4133424;28;19922;-63
2022/09/24 06:43:26;;;;;;;;;;;;;;;12.11;75.43;100277.72;4130030;28;19937;-63
2022/09/24 06:45:29;;;;;;;;;;;;;;;12.17;75.35;100275.13;4133341;28;20366;-63
2022/09/24 06:47:32;;;;;;;;;;;;;;;12.21;74.35;100271.69;4132436;28;20306;-63
2022/09/24 06:49:34;;;;;;;;;;;;;;;12.22;74.29;100276.00;4141708;28;19921;-63
2022/09/24 06:51:37;;;;;;;;;;;;;;;12.21;74.67;100272.56;4133132;28;19922;-63
2022/09/24 06:53:39;;;;;;;;;;;;;;;12.20;74.30;100281.22;4132420;28;19976;-63
2022/09/24 06:55:42;;;;;;;;;;;;;;;12.22;73.99;100276.91;4130411;28;19965;-63
2022/09/24 06:57:45;;;;;;;;;;;;;;;12.27;73.62;100279.53;4133134;28;19969;-63
2022/09/24 06:59:50;;;;;;;;;;;;;;;12.32;73.46;100287.38;4133186;28;19960;-63
2022/09/24 07:01:53;;;;;;;;;;;;;;;12.33;73.55;100287.38;4133217;28;19957;-63
2022/09/24 07:03:55;;;;;;;;;;;;;;;12.35;73.73;100293.47;4131109;28;19922;-63
2022/09/24 07:06:00;;;;;;;;;;;;;;;12.37;74.09;100285.66;4118778;28;19922;-63
2022/09/24 07:08:02;;;;;;;;;;;;;;;12.36;74.02;100292.59;4125628;28;19922;-62
2022/09/24 07:10:06;;;;;;;;;;;;;;;12.36;73.17;100286.53;4129006;28;19928;-63
2022/09/24 07:12:09;;;;;;;;;;;;;;;12.37;73.05;100289.13;4133011;28;19965;-63
2022/09/24 07:14:11;;;;;;;;;;;;;;;12.42;73.08;100286.53;4130620;28;19929;-63
2022/09/24 07:16:15;;;;;;;;;;;;;;;12.47;72.78;100284.81;4132742;28;20376;-63
2022/09/24 07:18:19;;;;;;;;;;;;;;;12.52;72.80;100284.84;4132923;28;19921;-63
2022/09/24 07:20:21;;;;;;;;;;;;;;;12.51;72.62;100290.91;4131284;28;19953;-63
2022/09/24 07:22:24;;;;;;;;;;;;;;;12.48;73.05;100286.56;4131231;28;19925;-64
2022/09/24 07:26:30;;;;;;;;;;;;;;;12.75;72.52;100282.31;4185314;27;20308;-64
2022/09/24 07:30:36;;;;;;;25.02;11.15;;;;;;;13.04;71.37;100271.91;4222879;27;20386;-63
2022/09/24 07:32:39;;;;;;;16.45;10.27;;;;;;;13.09;71.20;100277.13;4228309;28;20085;-63
2022/09/24 07:34:42;;;;;;;15.40;8.07;;;;;;;13.07;71.69;100289.31;4226563;28;20039;-63
2022/09/24 07:36:44;;;;;;;12.75;7.50;;;;;;;13.11;71.66;100304.09;4228035;28;20555;-63
2022/09/24 07:38:48;;;;;;;18.25;9.65;;;;;;;13.14;71.53;100293.69;4227082;28;20035;-63
2022/09/24 07:40:56;;;;;;;17.17;10.00;;;;;;;13.25;71.51;100291.94;4223563;28;20039;-64
2022/09/24 07:43:00;;;;;;;18.27;10.68;;;;;;;13.41;70.95;100291.97;4227633;28;20443;-63
2022/09/24 07:45:03;;;;;;;19.13;11.60;;;;;;;13.55;70.36;100295.47;4219515;28;20041;-62
2022/09/24 07:47:07;;;;;;;21.95;12.23;;;;;;;13.72;69.49;100289.34;4221785;28;20736;-62
2022/09/24 07:49:16;;;;;;;15.40;10.60;;;;;;;13.50;70.27;100291.97;4199385;27;20080;-61
2022/09/24 07:51:19;;;;;;;18.55;11.20;;;;;;;13.47;71.04;100288.50;4202368;28;20044;-61
2022/09/24 07:53:22;;;;;;;19.00;10.60;;;;;;;13.48;70.93;100288.50;4208594;28;20055;-61
2022/09/24 07:55:25;;;;;;;17.05;11.27;;;;;;;13.48;70.75;100280.66;4214868;28;20040;-61
2022/09/24 07:57:28;;;;;;;31.63;13.60;;;;;;;13.60;70.30;100278.03;4205890;28;20040;-59
2022/09/24 07:59:31;;;;;;;25.08;12.88;;;;;;;13.68;69.97;100280.66;4194645;28;20037;-63
2022/09/24 08:01:34;;;;;;;23.83;13.98;;;;;;;13.75;69.43;100284.09;4206995;28;20068;-63
2022/09/24 08:03:39;;;;;;;27.48;13.38;;;;;;;13.77;69.10;100282.38;4204023;28;20128;-61
2022/09/24 08:05:43;;;;;;;16.15;12.48;;;;;;;13.81;69.14;100276.25;4222331;28;20040;-61
2022/09/24 08:07:51;;;;;;;19.70;12.50;;;;;;;13.89;68.68;100282.34;4227640;28;20044;-61
2022/09/24 08:09:54;;;;;;;24.15;13.23;;;;;;;13.94;68.65;100283.22;4225013;28;20493;-65
2022/09/24 08:11:57;;;;;;;17.70;12.05;;;;;;;14.04;68.52;100280.56;4208297;28;20047;-65
2022/09/24 08:14:00;;;;;;;20.33;13.05;;;;;;;14.10;68.60;100277.91;4193579;28;20040;-65
2022/09/24 08:16:04;;;;;;;16.60;12.30;;;;;;;14.11;68.44;100283.13;4203090;28;20041;-65
2022/09/24 08:18:07;;;;;;;15.63;12.47;;;;;;;14.12;68.96;100282.28;4213484;28;20032;-65
2022/09/24 08:20:12;;;;;;;17.08;11.60;;;;;;;14.14;68.83;100279.66;4206650;28;20341;-64
2022/09/24 08:22:15;;;;;;;14.45;11.50;;;;;;;14.21;68.87;100283.13;4192900;28;20510;-65
2022/09/24 08:24:18;;;;;;;16.52;12.90;;;;;;;14.27;68.29;100291.81;4193836;28;20533;-65
2022/09/24 08:26:21;;;;;;;14.68;10.43;;;;;;;14.18;68.23;100291.84;4202283;28;20051;-65
2022/09/24 08:28:24;;;;;;;16.15;11.38;;;;;;;14.18;69.41;100291.84;4207489;28;20047;-64
2022/09/24 08:30:26;;;;;;;16.10;10.80;;;;;;;14.20;68.70;100299.69;4206481;28;20025;-64
2022/09/24 08:32:29;;;;;;;18.02;11.25;;;;;;;14.21;68.93;100306.66;4206148;28;20032;-65
2022/09/24 08:34:37;;;;;;;17.38;10.70;;;;;;;14.29;68.86;100305.75;4204263;28;20058;-65
2022/09/24 08:36:41;;;;;;;14.70;10.80;;;;;;;14.40;69.01;100302.22;4206117;28;20040;-64
2022/09/24 08:38:45;;;;;;;16.80;12.00;;;;;;;14.49;68.97;100302.19;4200105;28;20040;-63
2022/09/24 08:40:56;;;;;;;18.80;12.30;;;;;;;14.62;69.57;100303.88;4194960;28;20036;-65
2022/09/24 08:43:05;;;;;;;13.63;10.57;;;;;;;14.52;69.32;100301.31;4188602;28;20521;-65
2022/09/24 08:47:36;;;;;;;17.75;11.35;;;;;;;14.39;69.73;100298.72;4196845;28;20248;-64
2022/09/24 08:49:45;;;;;;;18.70;9.77;;;;;;;14.40;70.30;100299.63;4192104;28;21902;-64
2022/09/24 08:51:59;;;;;;;13.65;9.70;;;;;;;14.55;70.39;100301.28;4196940;28;20185;-64
2022/09/24 08:54:08;;;;;;;14.63;10.73;;;;;;;14.64;69.73;100306.50;4191498;28;20405;-64
2022/09/24 08:56:11;;;;;;;14.23;9.52;;;;;;;14.61;69.48;100302.16;4198318;28;20127;-64
2022/09/24 08:58:31;;;;;;;16.75;9.75;;;;;;;14.62;69.69;100308.25;4198881;28;20494;-64
2022/09/24 09:00:40;;;;;;;13.40;9.80;;;;;;;14.65;68.74;100301.25;4198719;28;20032;-64
2022/09/24 09:02:52;;;;;;;13.38;9.02;;;;;;;14.74;69.40;100294.25;4180433;28;20530;-64
2022/09/24 09:05:03;;;;;;;12.15;8.65;;;;;;;14.72;69.50;100290.75;4196382;28;20052;-64
2022/09/24 09:07:19;;;;;;;9.35;8.27;;;;;;;14.73;69.36;100293.34;4194366;28;20049;-65
2022/09/24 09:09:25;;;;;;;12.75;9.32;;;;;;;14.79;69.45;100295.06;4182373;28;20041;-64
2022/09/24 09:11:32;;;;;;;12.60;9.40;;;;;;;14.84;68.92;100298.53;4186392;28;20613;-65
2022/09/24 09:13:39;;;;;;;12.93;9.43;;;;;;;14.96;69.02;100303.69;4182089;28;20048;-66
2022/09/24 09:15:46;;;;;;;13.30;8.65;;;;;;;14.97;68.95;100308.06;4183311;28;20037;-65
2022/09/24 09:17:52;;;;;;;10.77;8.25;;;;;;;14.96;68.87;100301.06;4189539;28;20040;-65
2022/09/24 09:20:00;;;;;;;13.57;9.00;;;;;;;15.09;68.98;100287.91;4192457;28;20399;-65
2022/09/24 09:22:12;;;;;;;10.50;9.35;;;;;;;15.18;68.96;100279.97;4191500;28;20086;-65
2022/09/24 09:24:19;;;;;;;11.82;8.70;;;;;;;15.17;68.71;100291.31;4195230;28;20057;-65
2022/09/24 09:26:22;;;;;;;11.50;9.35;;;;;;;15.19;68.54;100294.81;4197829;28;20101;-64
2022/09/24 09:28:26;;;;;;;11.98;8.60;;;;;;;15.26;68.51;100287.78;4195359;28;20041;-64
2022/09/24 09:30:36;;;;;;;11.40;8.40;;;;;;;15.19;68.14;100289.59;4195835;28;20037;-65
2022/09/24 09:32:56;;;;;;;12.15;7.63;;;;;;;15.14;68.18;100280.88;4189797;28;20078;-66
2022/09/24 09:35:08;;;;;;;12.13;8.27;;;;;;;15.21;67.98;100277.34;4191980;28;20069;-64
2022/09/24 09:37:24;;;;;;;12.35;7.35;;;;;;;15.18;68.12;100283.47;4202898;28;20044;-64
2022/09/24 09:39:37;;;;;;;12.10;8.40;;;;;;;15.24;68.39;100287.78;4193763;28;20036;-64
2022/09/24 09:41:46;;;;;;;11.43;6.65;;;;;;;15.23;68.66;100295.66;4189477;28;20045;-65
2022/09/24 09:43:49;;;;;;;8.80;5.88;;;;;;;15.23;68.61;100287.81;4185178;28;20067;-65
2022/09/24 09:46:01;;;;;;;9.80;6.13;;;;;;;15.22;68.58;100294.78;4196531;28;20044;-65
2022/09/24 09:48:05;;;;;;;9.93;6.00;;;;;;;15.23;68.74;100301.78;4182512;28;20045;-65
2022/09/24 09:50:19;;;;;;;10.33;6.40;;;;;;;15.29;68.39;100295.63;4192550;28;20057;-65
2022/09/24 09:52:28;;;;;;;7.67;5.63;;;;;;;15.28;68.80;100299.13;4191598;28;20325;-66
2022/09/24 09:54:40;;;;;;;9.38;6.90;;;;;;;15.35;68.49;100298.19;4204698;28;20047;-65
2022/09/24 09:56:45;;;;;;;9.07;6.47;;;;;;;15.26;68.27;100296.53;4197823;28;20063;-65
2022/09/24 09:58:52;;;;;;;9.18;6.65;;;;;;;15.22;68.75;100299.19;4198366;28;20087;-66
2022/09/24 10:01:04;;;;;;;13.25;6.38;;;;;;;15.31;68.37;100297.34;4198320;28;20036;-65
2022/09/24 10:03:22;;;;;;;10.85;6.90;;;;;;;15.50;68.43;100294.56;4193933;28;20047;-65
2022/09/24 10:05:27;;;;;;;8.52;6.47;;;;;;;15.62;68.42;100294.44;4203766;28;20032;-66
2022/09/24 10:07:31;;;;;;;10.30;6.10;;;;;;;15.75;67.04;100295.22;4199829;28;20052;-66
2022/09/24 10:09:35;;;;;;;9.30;5.53;;;;;;;15.74;67.72;100289.97;4198185;28;20066;-66
2022/09/24 10:11:39;;;;;;;13.13;6.30;;;;;;;15.79;66.76;100290.84;4187432;28;20040;-65
2022/09/24 10:13:44;;;;;;;9.18;5.82;;;;;;;15.83;66.92;100292.56;4193438;28;20482;-65
2022/09/24 10:15:50;;;;;;;10.13;6.57;;;;;;;15.97;66.58;100289.78;4199746;28;20461;-65
2022/09/24 10:17:54;;;;;;;8.48;5.60;;;;;;;16.01;66.41;100292.34;4183029;28;20040;-64
2022/09/24 10:19:59;;;;;;;;;;;;;;;16.00;66.42;100282.78;4195081;28;20498;-64
2022/09/24 10:22:10;;;;;;;6.35;4.78;;;;;;;16.05;66.05;100294.06;4183826;28;20019;-65
2022/09/24 10:24:18;;;;;;;8.13;5.82;;;;;;;16.10;65.86;100286.13;4179449;28;20059;-65
2022/09/24 10:26:21;;;;;;;12.00;7.30;;;;;;;16.31;64.55;100274.53;4198397;28;20055;-65
2022/09/24 10:30:54;;;;;;;8.80;6.45;;;;;;;16.23;64.42;100277.22;4187455;28;20128;-65
2022/09/24 10:32:58;;;;;;;7.10;4.65;;;;;;;16.20;65.02;100281.66;4181072;28;20137;-65